Portada
METAR-TAF:

METAR-TAF

Aeroports :

Pyongyang, Corea del Nord

latitud: 39-02N, longitud: 125-47E, altitud: 36 m

METAR: manca

Hora: 05:03 (20:33 UTC)

Pronòstic

L'informe es va fer fa 16 hores i 23 minuts, a les 04:10 UTC
Pronòstic vàlid del 22 a les 06 UTC al 23 a les 06 UTC
Vent 14 kt del Nord/Nord-Oest
Visibilitat 10 km o més
sense núvols per sota de 1500 mi sense presència de cumulonimbus.
Temporalment
l' 22 a les 11 UTC al 22 a les 20 UTC
Vent 6 kt del Sud-Oest
Cel cobert a una alçada de 2000 ft
Evolucionant progressivament
l' 22 a les 20 UTC al 22 a les 22 UTC
Vent 8 kt del Nord-Oest

TAF: ZKPY 220410Z 2206/2306 34007MPS CAVOK TX08/2206Z TNM01/2221Z TEMPO 2211/2220 23003MPS OVC020 BECMG 2220/2222 32004MPS

Observacions i pronòstics meteorològics de més de 4000 aeroports (METAR i TAF).

Les estacions disponibles són els punts grocs i vermells al mapa.

Posi el ratolí al punt desitjat per veure el nom de l'estació.

Feu clic per veure les observacions i els pronòstics meteorològics.

Per canviar el mapa: feu clic els botons verds amb una creu de color negre per apropar; al botó verd amb un guió per allunyar la imatge; o en les fletxes verdes per a mapes adjacents.


METAR-TAF: